createdAt,value
2023-04-29T00:00:45.828Z,0.4756
2023-04-29T00:01:48.416Z,0.4765
2023-04-29T00:02:51.124Z,0.4819
2023-04-29T00:03:53.754Z,0.4800
2023-04-29T00:04:56.400Z,0.4682
2023-04-29T00:05:58.926Z,0.4568
2023-04-29T00:07:01.391Z,0.4609
2023-04-29T00:08:03.948Z,0.4640
2023-04-29T00:09:06.565Z,0.4707
2023-04-29T00:10:09.146Z,0.4670
2023-04-29T00:11:11.747Z,0.4636
2023-04-29T00:12:14.314Z,0.4476
2023-04-29T00:13:16.939Z,0.4546
2023-04-29T00:14:19.502Z,0.4673
2023-04-29T00:15:22.121Z,0.4694
2023-04-29T00:18:13.302Z,0.4904
2023-04-29T00:19:15.904Z,0.5007
2023-04-29T00:20:18.648Z,0.4854
2023-04-29T00:23:09.755Z,0.5671
2023-04-29T00:24:12.285Z,0.5648
2023-04-29T00:25:14.902Z,0.5457
2023-04-29T00:26:17.483Z,0.5268
2023-04-29T00:27:20.355Z,0.5093
2023-04-29T00:28:22.672Z,0.4861
2023-04-29T00:29:25.316Z,0.4753
2023-04-29T00:30:27.871Z,0.4588
2023-04-29T00:31:30.532Z,0.4581
2023-04-29T00:32:33.076Z,0.4591
2023-04-29T00:33:35.668Z,0.4626
2023-04-29T00:34:38.248Z,0.4553
2023-04-29T00:35:40.863Z,0.4618
2023-04-29T00:36:43.432Z,0.4670
2023-04-29T00:37:46.038Z,0.4619
2023-04-29T00:38:48.606Z,0.4753
2023-04-29T00:39:51.442Z,0.4714
2023-04-29T00:40:53.810Z,0.4801
2023-04-29T00:41:56.418Z,0.4765
2023-04-29T00:42:58.966Z,0.4748
2023-04-29T00:44:01.603Z,0.4681
2023-04-29T00:45:04.787Z,0.4687
2023-04-29T00:46:06.833Z,0.4694
2023-04-29T00:47:09.340Z,0.4532
2023-04-29T00:48:11.959Z,0.4508
2023-04-29T00:49:14.520Z,0.4365
2023-04-29T00:50:17.150Z,0.4438
2023-04-29T00:51:19.770Z,0.4526
2023-04-29T00:52:22.717Z,0.4518
2023-04-29T00:53:24.894Z,0.4570
2023-04-29T00:54:31.967Z,0.4607
2023-04-29T00:55:30.072Z,0.4552
2023-04-29T00:56:32.690Z,0.4593
2023-04-29T00:57:35.264Z,0.4534
2023-04-29T00:58:37.874Z,0.4475
2023-04-29T00:59:40.667Z,0.4457
2023-04-29T01:00:43.070Z,0.4474
2023-04-29T01:01:45.723Z,0.4462
2023-04-29T01:02:48.322Z,0.4442
2023-04-29T01:03:51.034Z,0.4606
2023-04-29T01:04:53.577Z,0.4894
2023-04-29T01:05:55.991Z,0.5124
2023-04-29T01:06:58.633Z,0.6271
2023-04-29T01:08:01.190Z,0.6219
2023-04-29T01:09:03.786Z,0.5869
2023-04-29T01:10:06.350Z,0.5524
2023-04-29T01:11:08.982Z,0.5317
2023-04-29T01:12:11.553Z,0.4950
2023-04-29T01:13:14.171Z,0.4906
2023-04-29T01:14:16.723Z,0.4836
2023-04-29T01:15:19.339Z,0.4891
2023-04-29T01:16:21.918Z,0.4901
2023-04-29T01:17:24.608Z,0.4976
2023-04-29T01:18:27.093Z,0.5006
2023-04-29T01:19:29.716Z,0.4865
2023-04-29T01:20:32.295Z,0.4827
2023-04-29T01:21:34.900Z,0.4817
2023-04-29T01:22:37.571Z,0.4672
2023-04-29T01:23:40.082Z,0.4620
2023-04-29T01:24:42.772Z,0.4626
2023-04-29T01:25:45.314Z,0.4593
2023-04-29T01:26:47.830Z,0.4532
2023-04-29T01:27:50.456Z,0.4607
2023-04-29T01:28:53.018Z,0.4711
2023-04-29T01:29:55.632Z,0.4669
2023-04-29T01:30:58.274Z,0.4685
2023-04-29T01:32:00.825Z,0.4596
2023-04-29T01:33:03.452Z,0.4541
2023-04-29T01:34:05.996Z,0.4516
2023-04-29T01:35:08.554Z,0.4589
2023-04-29T01:36:11.174Z,0.4547
2023-04-29T01:37:13.747Z,0.4561
2023-04-29T01:38:16.424Z,0.4547
2023-04-29T01:39:18.926Z,0.4516
2023-04-29T01:40:21.542Z,0.4492
2023-04-29T01:41:24.110Z,0.4519
2023-04-29T01:42:26.823Z,0.4500
2023-04-29T01:43:29.295Z,0.4490
2023-04-29T01:44:31.896Z,0.4520
2023-04-29T01:45:34.474Z,0.4619
2023-04-29T01:46:37.148Z,0.4722
2023-04-29T01:47:39.712Z,0.4847
2023-04-29T01:48:42.266Z,0.4755
2023-04-29T01:49:44.842Z,0.4805
2023-04-29T01:50:47.447Z,0.4823
2023-04-29T01:51:50.018Z,0.4773
2023-04-29T01:52:52.637Z,0.4580
2023-04-29T01:53:55.188Z,0.4489
2023-04-29T01:54:57.905Z,0.4355
2023-04-29T01:56:00.367Z,0.4331
2023-04-29T01:57:02.984Z,0.4539
2023-04-29T01:58:05.554Z,0.4599
2023-04-29T01:59:08.241Z,0.4680
2023-04-29T02:00:10.723Z,0.4759
2023-04-29T02:01:13.365Z,0.4733
2023-04-29T02:02:15.923Z,0.4724
2023-04-29T02:05:07.179Z,0.5078
2023-04-29T02:06:09.748Z,0.5435
2023-04-29T02:07:12.306Z,0.5185
2023-04-29T02:08:15.171Z,0.5082
2023-04-29T02:09:17.497Z,0.4926
2023-04-29T02:10:20.114Z,0.4922
2023-04-29T02:13:01.670Z,0.3957
2023-04-29T02:14:04.292Z,0.4284
2023-04-29T02:15:06.861Z,0.4391
2023-04-29T02:16:09.521Z,0.4610
2023-04-29T02:17:12.065Z,0.4723
2023-04-29T02:18:14.699Z,0.4730
2023-04-29T02:19:17.260Z,0.4633
2023-04-29T02:20:19.884Z,0.4649
2023-04-29T02:21:22.462Z,0.4677
2023-04-29T02:22:25.059Z,0.4667
2023-04-29T02:23:27.775Z,0.4728
2023-04-29T02:24:30.271Z,0.4784
2023-04-29T02:25:32.847Z,0.4659
2023-04-29T02:26:35.440Z,0.4654
2023-04-29T02:27:38.035Z,0.4684
2023-04-29T02:28:40.647Z,0.4818
2023-04-29T02:29:43.202Z,0.4704
2023-04-29T02:30:45.826Z,0.4603
2023-04-29T02:31:48.412Z,0.4620
2023-04-29T02:32:51.040Z,0.4638
2023-04-29T02:33:53.585Z,0.4719
2023-04-29T02:34:56.208Z,0.4777
2023-04-29T02:35:58.776Z,0.4795
2023-04-29T02:37:01.399Z,0.4758
2023-04-29T02:38:03.978Z,0.4808
2023-04-29T02:39:06.599Z,0.4692
2023-04-29T02:40:09.166Z,0.4597
2023-04-29T02:41:11.763Z,0.4706
2023-04-29T02:42:14.339Z,0.4600
2023-04-29T02:43:16.959Z,0.4527
2023-04-29T02:44:19.526Z,0.4637
2023-04-29T02:45:22.149Z,0.4578
2023-04-29T02:46:24.773Z,0.4434
2023-04-29T02:47:27.378Z,0.4522
2023-04-29T02:48:29.899Z,0.4607
2023-04-29T02:49:32.530Z,0.4565
2023-04-29T02:50:35.105Z,0.4600
2023-04-29T02:51:37.719Z,0.4599
2023-04-29T02:52:40.421Z,0.4484
2023-04-29T02:53:42.897Z,0.4492
2023-04-29T02:54:45.471Z,0.4531
2023-04-29T02:55:48.083Z,0.4569
2023-04-29T02:56:50.827Z,0.4604
2023-04-29T02:57:53.282Z,0.4625
2023-04-29T02:58:55.856Z,0.4559
2023-04-29T02:59:58.496Z,0.4626
2023-04-29T03:01:01.097Z,0.4602
2023-04-29T03:02:03.673Z,0.4495
2023-04-29T03:03:06.330Z,0.4506
2023-04-29T03:04:09.328Z,0.4561
2023-04-29T03:05:11.451Z,0.4487
2023-04-29T03:06:14.045Z,0.4351
2023-04-29T03:07:16.620Z,0.4480
2023-04-29T03:08:19.237Z,0.4571
2023-04-29T03:09:21.808Z,0.4641
2023-04-29T03:10:24.440Z,0.4693
2023-04-29T03:11:27.020Z,0.4710
2023-04-29T03:12:29.636Z,0.4690
2023-04-29T03:13:32.193Z,0.4590
2023-04-29T03:14:34.803Z,0.4463
2023-04-29T03:15:37.381Z,0.4446
2023-04-29T03:16:40.048Z,0.4418
2023-04-29T03:17:42.574Z,0.4355
2023-04-29T03:18:45.207Z,0.4398
2023-04-29T03:19:47.751Z,0.4482
2023-04-29T03:20:50.368Z,0.4672
2023-04-29T03:21:54.016Z,0.4792
2023-04-29T03:22:55.546Z,0.4822
2023-04-29T03:23:58.122Z,0.4789
2023-04-29T03:25:00.740Z,0.4655
2023-04-29T03:26:03.351Z,0.4496
2023-04-29T03:27:05.925Z,0.4470
2023-04-29T03:28:08.510Z,0.4526
2023-04-29T03:31:09.698Z,0.4039
2023-04-29T03:32:11.987Z,0.4498
2023-04-29T03:33:14.552Z,0.4611
2023-04-29T03:35:56.156Z,0.4708
2023-04-29T03:36:58.727Z,0.4795
2023-04-29T03:38:01.344Z,0.4719
2023-04-29T03:39:03.917Z,0.4862
2023-04-29T03:40:06.537Z,0.4763
2023-04-29T03:41:09.105Z,0.4758
2023-04-29T03:42:11.735Z,0.4743
2023-04-29T03:43:14.306Z,0.4736
2023-04-29T03:44:16.920Z,0.4589
2023-04-29T03:45:19.493Z,0.4493
2023-04-29T03:47:37.021Z,0.4664
2023-04-29T03:48:39.594Z,0.4751
2023-04-29T03:51:21.154Z,0.4006
2023-04-29T03:54:02.766Z,0.4215
2023-04-29T03:55:05.339Z,0.4586
2023-04-29T03:56:07.954Z,0.4613
2023-04-29T03:57:10.523Z,0.4565
2023-04-29T03:58:13.140Z,0.4410
2023-04-29T03:59:15.721Z,0.4459
2023-04-29T04:00:18.333Z,0.4591
2023-04-29T04:01:20.913Z,0.4436
2023-04-29T04:02:23.631Z,0.4449
2023-04-29T04:03:26.254Z,0.4555
2023-04-29T04:04:28.879Z,0.4346
2023-04-29T04:05:31.295Z,0.4389
2023-04-29T04:06:33.928Z,0.4412
2023-04-29T04:07:36.495Z,0.4571
2023-04-29T04:08:39.113Z,0.4653
2023-04-29T04:09:41.681Z,0.4629
2023-04-29T04:10:44.306Z,0.4665
2023-04-29T04:11:46.876Z,0.4754
2023-04-29T04:12:49.497Z,0.4669
2023-04-29T04:13:52.110Z,0.4628
2023-04-29T04:14:54.684Z,0.4673
2023-04-29T04:15:57.275Z,0.4646
2023-04-29T04:16:59.877Z,0.4545
2023-04-29T04:18:02.518Z,0.4591
2023-04-29T04:19:05.075Z,0.4603
2023-04-29T04:20:07.659Z,0.4554
2023-04-29T04:21:10.275Z,0.4549
2023-04-29T04:22:13.074Z,0.4467
2023-04-29T04:23:15.452Z,0.4449
2023-04-29T04:24:18.021Z,0.4597
2023-04-29T04:25:20.655Z,0.4676
2023-04-29T04:26:23.236Z,0.4514
2023-04-29T04:27:25.848Z,0.4492
2023-04-29T04:28:28.403Z,0.4461
2023-04-29T04:29:31.045Z,0.4530
2023-04-29T04:30:33.597Z,0.4603
2023-04-29T04:31:36.291Z,0.4645
2023-04-29T04:32:38.828Z,0.4626
2023-04-29T04:33:41.421Z,0.4515
2023-04-29T04:34:43.984Z,0.4574
2023-04-29T04:35:46.610Z,0.4550
2023-04-29T04:36:49.189Z,0.4576
2023-04-29T04:37:51.795Z,0.4550
2023-04-29T04:38:54.554Z,0.4580
2023-04-29T04:39:56.993Z,0.4562
2023-04-29T04:40:59.571Z,0.4589
2023-04-29T04:42:02.172Z,0.4784
2023-04-29T04:43:04.745Z,0.4892
2023-04-29T04:44:07.372Z,0.4815
2023-04-29T04:45:09.938Z,0.4617
2023-04-29T04:46:12.637Z,0.4578
2023-04-29T04:48:20.383Z,0.4370
2023-04-29T04:49:23.010Z,0.4531
2023-04-29T04:50:25.585Z,0.4418
2023-04-29T04:51:28.585Z,0.4517
2023-04-29T04:52:30.775Z,0.4450
2023-04-29T04:53:33.398Z,0.4400
2023-04-29T04:54:35.966Z,0.4444
2023-04-29T04:55:38.580Z,0.4351
2023-04-29T04:56:41.147Z,0.4393
2023-04-29T04:57:43.771Z,0.4387
2023-04-29T04:58:46.339Z,0.4445
2023-04-29T04:59:48.959Z,0.4536
2023-04-29T05:00:51.565Z,0.4552
2023-04-29T05:01:54.196Z,0.4695
2023-04-29T05:02:56.815Z,0.4629
2023-04-29T05:03:59.572Z,0.4620
2023-04-29T05:05:01.939Z,0.4544
2023-04-29T05:06:04.561Z,0.4572
2023-04-29T05:07:07.126Z,0.4456
2023-04-29T05:08:09.767Z,0.4492
2023-04-29T05:09:12.330Z,0.4483
2023-04-29T05:10:14.944Z,0.4453
2023-04-29T05:11:17.540Z,0.4484
2023-04-29T05:12:20.152Z,0.4492
2023-04-29T05:13:22.726Z,0.4504
2023-04-29T05:14:25.347Z,0.4510
2023-04-29T05:15:27.912Z,0.4487
2023-04-29T05:16:30.547Z,0.4521
2023-04-29T05:17:33.110Z,0.4580
2023-04-29T05:18:35.696Z,0.4529
2023-04-29T05:19:38.268Z,0.4479
2023-04-29T05:20:40.881Z,0.4546
2023-04-29T05:21:43.471Z,0.4630
2023-04-29T05:22:46.076Z,0.4809
2023-04-29T05:23:48.660Z,0.4658
2023-04-29T05:24:51.288Z,0.4681
2023-04-29T05:25:53.851Z,0.4639
2023-04-29T05:26:56.477Z,0.4737
2023-04-29T05:27:59.033Z,0.4585
2023-04-29T05:29:01.659Z,0.4635
2023-04-29T05:30:04.231Z,0.4520
2023-04-29T05:31:06.921Z,0.4747
2023-04-29T05:32:09.409Z,0.4730
2023-04-29T05:33:12.037Z,0.4744
2023-04-29T05:34:14.624Z,0.4738
2023-04-29T05:35:17.233Z,0.4732
2023-04-29T05:36:19.793Z,0.4773
2023-04-29T05:37:22.445Z,0.4718
2023-04-29T05:38:24.994Z,0.4729
2023-04-29T05:39:27.626Z,0.4693
2023-04-29T05:40:30.253Z,0.4667
2023-04-29T05:41:32.796Z,0.4764
2023-04-29T05:42:35.367Z,0.4667
2023-04-29T05:43:38.000Z,0.4767
2023-04-29T05:44:40.577Z,0.4615
2023-04-29T05:45:43.188Z,0.4566
2023-04-29T05:46:45.796Z,0.4701
2023-04-29T05:47:48.396Z,0.4756
2023-04-29T05:48:50.925Z,0.4687
2023-04-29T05:49:53.799Z,0.4600
2023-04-29T05:50:56.113Z,0.4489
2023-04-29T05:51:58.736Z,0.4443
2023-04-29T05:54:30.811Z,0.4486
2023-04-29T05:55:33.249Z,0.4886
2023-04-29T05:56:35.876Z,0.4857
2023-04-29T05:57:38.456Z,0.4782
2023-04-29T05:58:41.089Z,0.4829
2023-04-29T05:59:43.640Z,0.4747
2023-04-29T06:00:46.253Z,0.4782
2023-04-29T06:01:48.829Z,0.4833
2023-04-29T06:02:58.608Z,0.4860
2023-04-29T06:03:54.214Z,0.4927
2023-04-29T06:04:56.866Z,0.5073
2023-04-29T06:05:59.600Z,0.5033
2023-04-29T06:07:01.831Z,0.4994
2023-04-29T06:08:04.402Z,0.4932
2023-04-29T06:09:13.446Z,0.5062
2023-04-29T06:10:09.580Z,0.5156
2023-04-29T06:11:12.218Z,0.5041
2023-04-29T06:12:14.774Z,0.5028
2023-04-29T06:13:17.407Z,0.4884
2023-04-29T06:14:19.955Z,0.4701
2023-04-29T06:15:22.581Z,0.4546
2023-04-29T06:16:25.196Z,0.4476
2023-04-29T06:17:27.806Z,0.4480
2023-04-29T06:18:30.347Z,0.4476
2023-04-29T06:19:33.010Z,0.4586
2023-04-29T06:20:37.489Z,0.4649
2023-04-29T06:21:38.130Z,0.4672
2023-04-29T06:22:40.702Z,0.4638
2023-04-29T06:23:43.322Z,0.4644
2023-04-29T06:24:45.892Z,0.4704
2023-04-29T06:25:48.870Z,0.4786
2023-04-29T06:26:51.075Z,0.4889
2023-04-29T06:27:53.706Z,0.4824
2023-04-29T06:28:56.245Z,0.4862
2023-04-29T06:29:58.871Z,0.4934
2023-04-29T06:31:01.431Z,0.4923
2023-04-29T06:32:04.085Z,0.4982
2023-04-29T06:33:06.648Z,0.4951
2023-04-29T06:34:09.258Z,0.4877
2023-04-29T06:35:11.788Z,0.4794
2023-04-29T06:36:14.407Z,0.4824
2023-04-29T06:37:16.952Z,0.4898
2023-04-29T06:38:19.571Z,0.4886
2023-04-29T06:39:22.149Z,0.4920
2023-04-29T06:40:24.788Z,0.4887
2023-04-29T06:41:27.324Z,0.4846
2023-04-29T06:42:29.929Z,0.4768
2023-04-29T06:43:32.490Z,0.4770
2023-04-29T06:44:35.116Z,0.4778
2023-04-29T06:45:37.674Z,0.4775
2023-04-29T06:46:40.299Z,0.4815
2023-04-29T06:47:42.864Z,0.4804
2023-04-29T06:48:45.462Z,0.4777
2023-04-29T06:49:48.022Z,0.4766
2023-04-29T06:50:50.639Z,0.4773
2023-04-29T06:51:53.215Z,0.4836
2023-04-29T06:52:55.830Z,0.4834
2023-04-29T06:53:58.393Z,0.4792
2023-04-29T06:55:01.032Z,0.4858
2023-04-29T06:56:03.576Z,0.5004
2023-04-29T06:57:06.180Z,0.4960
2023-04-29T06:58:08.771Z,0.4825
2023-04-29T06:59:11.362Z,0.4817
2023-04-29T07:00:13.922Z,0.4817
2023-04-29T07:01:16.580Z,0.4847
2023-04-29T07:02:19.201Z,0.4889
2023-04-29T07:03:21.788Z,0.4970
2023-04-29T07:04:24.358Z,0.5025
2023-04-29T07:05:26.923Z,0.4966
2023-04-29T07:06:29.693Z,0.4952
2023-04-29T07:07:32.093Z,0.4856
2023-04-29T07:08:34.662Z,0.4808
2023-04-29T07:09:37.279Z,0.4877
2023-04-29T07:10:39.836Z,0.4963
2023-04-29T07:11:42.458Z,0.5022
2023-04-29T07:12:45.018Z,0.4992
2023-04-29T07:13:47.637Z,0.4851
2023-04-29T07:14:50.208Z,0.4667
2023-04-29T07:15:52.825Z,0.4621
2023-04-29T07:16:55.486Z,0.4715
2023-04-29T07:17:58.035Z,0.4835
2023-04-29T07:19:00.567Z,0.4887
2023-04-29T07:20:03.170Z,0.4838
2023-04-29T07:21:05.721Z,0.4810
2023-04-29T07:22:08.333Z,0.4846
2023-04-29T07:23:10.897Z,0.4792
2023-04-29T07:24:13.502Z,0.4709
2023-04-29T07:25:16.068Z,0.4592
2023-04-29T07:26:18.678Z,0.4564
2023-04-29T07:27:21.257Z,0.4584
2023-04-29T07:28:23.872Z,0.4563
2023-04-29T07:29:26.425Z,0.4537
2023-04-29T07:30:29.039Z,0.4594
2023-04-29T07:31:31.789Z,0.4664
2023-04-29T07:32:34.273Z,0.4718
2023-04-29T07:33:36.776Z,0.4810
2023-04-29T07:34:39.379Z,0.4901
2023-04-29T07:35:41.938Z,0.4901
2023-04-29T07:36:44.527Z,0.4909
2023-04-29T07:37:47.140Z,0.4927
2023-04-29T07:38:49.754Z,0.4926
2023-04-29T07:41:36.029Z,0.4466
2023-04-29T07:42:38.580Z,0.4863
2023-04-29T07:43:42.503Z,0.4957
2023-04-29T07:44:43.789Z,0.4909
2023-04-29T07:45:46.397Z,0.4841
2023-04-29T07:46:48.996Z,0.4858
2023-04-29T07:47:51.655Z,0.4883
2023-04-29T07:48:54.134Z,0.4929
2023-04-29T07:49:56.737Z,0.4886
2023-04-29T07:50:59.305Z,0.4856
2023-04-29T07:52:01.907Z,0.4806
2023-04-29T07:53:04.477Z,0.4737
2023-04-29T07:54:07.098Z,0.4707
2023-04-29T07:55:09.709Z,0.4805
2023-04-29T07:56:12.261Z,0.4873
2023-04-29T07:57:14.812Z,0.4864
2023-04-29T07:59:51.508Z,0.3959
2023-04-29T08:00:54.114Z,0.4601
2023-04-29T08:01:56.666Z,0.4687
2023-04-29T08:02:59.389Z,0.4766
2023-04-29T08:04:02.049Z,0.4735
2023-04-29T08:05:05.078Z,0.4758
2023-04-29T08:06:07.121Z,0.4738
2023-04-29T08:07:09.659Z,0.4692
2023-04-29T08:08:12.195Z,0.4705
2023-04-29T08:09:14.815Z,0.4691
2023-04-29T08:10:17.449Z,0.4659
2023-04-29T08:11:20.004Z,0.4637
2023-04-29T08:12:22.600Z,0.4600
2023-04-29T08:13:25.140Z,0.4617
2023-04-29T08:14:27.764Z,0.4572
2023-04-29T08:15:30.330Z,0.4469
2023-04-29T08:16:32.982Z,0.4440
2023-04-29T08:17:35.498Z,0.4458
2023-04-29T08:18:38.165Z,0.4462
2023-04-29T08:19:40.683Z,0.4484
2023-04-29T08:20:43.299Z,0.4497
2023-04-29T08:21:45.869Z,0.4600
2023-04-29T08:22:48.490Z,0.4592
2023-04-29T08:25:15.516Z,0.3682
2023-04-29T08:26:18.113Z,0.4129
2023-04-29T08:27:20.671Z,0.4204
2023-04-29T08:28:23.289Z,0.4235
2023-04-29T08:29:25.846Z,0.4263
2023-04-29T08:30:28.482Z,0.4330
2023-04-29T08:31:31.049Z,0.4364
2023-04-29T08:32:33.657Z,0.4433
2023-04-29T08:33:36.215Z,0.4410
2023-04-29T08:34:38.813Z,0.4454
2023-04-29T08:35:41.377Z,0.4430
2023-04-29T08:36:43.995Z,0.4477
2023-04-29T08:37:46.551Z,0.4493
2023-04-29T08:38:49.167Z,0.4453
2023-04-29T08:39:51.723Z,0.4541
2023-04-29T08:40:54.345Z,0.4523
2023-04-29T08:41:56.897Z,0.4645
2023-04-29T08:42:59.524Z,0.4635
2023-04-29T08:44:02.086Z,0.4609
2023-04-29T08:45:04.697Z,0.4657
2023-04-29T08:46:07.277Z,0.4644
2023-04-29T08:47:09.948Z,0.4660
2023-04-29T08:48:12.512Z,0.4629
2023-04-29T08:49:15.023Z,0.4620
2023-04-29T08:50:17.586Z,0.4711
2023-04-29T08:51:20.189Z,0.4758
2023-04-29T08:52:22.745Z,0.4773
2023-04-29T08:53:25.380Z,0.4801
2023-04-29T08:54:27.923Z,0.4769
2023-04-29T08:55:30.538Z,0.4737
2023-04-29T08:56:33.090Z,0.4790
2023-04-29T08:57:35.701Z,0.4800
2023-04-29T08:58:38.262Z,0.4842
2023-04-29T09:00:46.052Z,0.5375
2023-04-29T09:01:48.675Z,0.5322
2023-04-29T09:02:51.295Z,0.5204
2023-04-29T09:03:54.054Z,0.5144
2023-04-29T09:04:56.687Z,0.5228
2023-04-29T09:05:59.003Z,0.5211
2023-04-29T09:07:01.571Z,0.5229
2023-04-29T09:08:04.173Z,0.5184
2023-04-29T09:09:06.746Z,0.5211
2023-04-29T09:10:09.356Z,0.5086
2023-04-29T09:11:11.914Z,0.5072
2023-04-29T09:12:14.520Z,0.5008
2023-04-29T09:13:17.080Z,0.4992
2023-04-29T09:14:19.705Z,0.4986
2023-04-29T09:15:22.271Z,0.4954
2023-04-29T09:16:25.000Z,0.4982
2023-04-29T09:17:27.434Z,0.5004
2023-04-29T09:18:30.043Z,0.4974
2023-04-29T09:19:32.626Z,0.4960
2023-04-29T09:20:35.216Z,0.4885
2023-04-29T09:21:37.782Z,0.4979
2023-04-29T09:22:40.399Z,0.4929
2023-04-29T09:23:42.952Z,0.4926
2023-04-29T09:24:45.564Z,0.4849
2023-04-29T09:25:48.133Z,0.4730
2023-04-29T09:26:51.817Z,0.4796
2023-04-29T09:27:53.302Z,0.4700
2023-04-29T09:28:55.903Z,0.4670
2023-04-29T09:29:58.467Z,0.4730
2023-04-29T09:31:01.091Z,0.4733
2023-04-29T09:32:03.677Z,0.4707
2023-04-29T09:33:06.393Z,0.4679
2023-04-29T09:34:08.816Z,0.4689
2023-04-29T09:35:11.407Z,0.4627
2023-04-29T09:36:13.965Z,0.4620
2023-04-29T09:38:26.524Z,0.3883
2023-04-29T09:39:29.140Z,0.4162
2023-04-29T09:40:31.705Z,0.4309
2023-04-29T09:41:34.314Z,0.4397
2023-04-29T09:42:36.884Z,0.4447
2023-04-29T09:43:39.513Z,0.4510
2023-04-29T09:44:42.064Z,0.4508
2023-04-29T09:45:44.689Z,0.4516
2023-04-29T09:46:47.238Z,0.4556
2023-04-29T09:47:49.872Z,0.4523
2023-04-29T09:48:52.400Z,0.4609
2023-04-29T09:49:55.013Z,0.4563
2023-04-29T09:50:57.574Z,0.4579
2023-04-29T09:52:00.186Z,0.4757
2023-04-29T09:53:02.752Z,0.4689
2023-04-29T09:54:05.354Z,0.4734
2023-04-29T09:55:07.927Z,0.4740
2023-04-29T09:56:10.538Z,0.4786
2023-04-29T09:57:13.133Z,0.4762
2023-04-29T09:58:15.803Z,0.4680
2023-04-29T09:59:18.265Z,0.4710
2023-04-29T10:00:20.878Z,0.4710
2023-04-29T10:01:23.508Z,0.4706
2023-04-29T10:02:26.144Z,0.4658
2023-04-29T10:03:28.688Z,0.4699
2023-04-29T10:04:31.282Z,0.4731
2023-04-29T10:05:33.789Z,0.4708
2023-04-29T10:06:36.429Z,0.4619
2023-04-29T10:07:38.972Z,0.4648
2023-04-29T10:08:41.599Z,0.4716
2023-04-29T10:09:44.140Z,0.4736
2023-04-29T10:10:46.740Z,0.4777
2023-04-29T10:11:49.305Z,0.4781
2023-04-29T10:12:51.915Z,0.4739
2023-04-29T10:13:54.471Z,0.4651
2023-04-29T10:14:57.085Z,0.4771
2023-04-29T10:15:59.712Z,0.4809
2023-04-29T10:17:02.284Z,0.4904
2023-04-29T10:18:04.846Z,0.4884
2023-04-29T10:19:07.429Z,0.4835
2023-04-29T10:20:09.990Z,0.4799
2023-04-29T10:21:12.797Z,0.4670
2023-04-29T10:22:15.226Z,0.4565
2023-04-29T10:23:17.831Z,0.4551
2023-04-29T10:24:20.389Z,0.4613
2023-04-29T10:25:22.997Z,0.4590
2023-04-29T10:27:35.558Z,0.4074
2023-04-29T10:28:38.123Z,0.4324
2023-04-29T10:29:40.735Z,0.4240
2023-04-29T10:30:43.302Z,0.4362
2023-04-29T10:31:46.044Z,0.4454
2023-04-29T10:32:51.757Z,0.4423
2023-04-29T10:35:29.945Z,0.3510
2023-04-29T10:38:25.836Z,0.3943
2023-04-29T10:39:28.387Z,0.4211
2023-04-29T10:40:31.024Z,0.4358
2023-04-29T10:41:33.565Z,0.4495
2023-04-29T10:42:36.190Z,0.4571
2023-04-29T10:43:38.743Z,0.4666
2023-04-29T10:44:41.359Z,0.4695
2023-04-29T10:45:43.929Z,0.4729
2023-04-29T10:46:46.554Z,0.4793
2023-04-29T10:47:49.111Z,0.4911
2023-04-29T10:48:51.700Z,0.4817
2023-04-29T10:49:54.262Z,0.4837
2023-04-29T10:50:56.864Z,0.4751
2023-04-29T10:51:59.417Z,0.4602
2023-04-29T10:53:02.035Z,0.4548
2023-04-29T10:54:04.617Z,0.4603
2023-04-29T10:55:07.183Z,0.4506
2023-04-29T10:56:09.810Z,0.4479
2023-04-29T10:57:12.645Z,0.4465
2023-04-29T10:58:14.951Z,0.4424
2023-04-29T10:59:17.524Z,0.4505
2023-04-29T11:00:20.117Z,0.4491
2023-04-29T11:01:22.727Z,0.4552
2023-04-29T11:02:25.355Z,0.4500
2023-04-29T11:03:27.878Z,0.4526
2023-04-29T11:04:30.496Z,0.4552
2023-04-29T11:05:33.023Z,0.4610
2023-04-29T11:06:35.619Z,0.4691
2023-04-29T11:07:38.202Z,0.4730
2023-04-29T11:08:40.789Z,0.4630
2023-04-29T11:09:43.348Z,0.4578
2023-04-29T11:10:45.967Z,0.4517
2023-04-29T11:11:48.511Z,0.4524
2023-04-29T11:12:51.109Z,0.4554
2023-04-29T11:13:53.797Z,0.4609
2023-04-29T11:14:56.357Z,0.4638
2023-04-29T11:15:58.871Z,0.4647
2023-04-29T11:17:01.464Z,0.4555
2023-04-29T11:18:04.001Z,0.4642
2023-04-29T11:19:06.591Z,0.4706
2023-04-29T11:20:09.146Z,0.4698
2023-04-29T11:21:11.764Z,0.4717
2023-04-29T11:22:14.305Z,0.4730
2023-04-29T11:23:16.905Z,0.4756
2023-04-29T11:24:19.459Z,0.4783
2023-04-29T11:25:22.078Z,0.4809
2023-04-29T11:26:24.637Z,0.4885
2023-04-29T11:27:27.243Z,0.4822
2023-04-29T11:28:29.802Z,0.4825
2023-04-29T11:29:32.384Z,0.4786
2023-04-29T11:30:34.938Z,0.4734
2023-04-29T11:31:37.638Z,0.4610
2023-04-29T11:32:40.243Z,0.4581
2023-04-29T11:33:42.804Z,0.4496
2023-04-29T11:34:45.271Z,0.4430
2023-04-29T11:35:47.857Z,0.4388
2023-04-29T11:36:50.406Z,0.4301
2023-04-29T11:37:53.029Z,0.4299
2023-04-29T11:38:55.584Z,0.4328
2023-04-29T11:39:58.207Z,0.4362
2023-04-29T11:41:00.752Z,0.4327
2023-04-29T11:42:03.338Z,0.4353
2023-04-29T11:43:05.888Z,0.4377
2023-04-29T11:44:08.495Z,0.4411
2023-04-29T11:45:11.094Z,0.4445
2023-04-29T11:46:13.792Z,0.4446
2023-04-29T11:48:59.857Z,0.5004
2023-04-29T11:50:02.443Z,0.5084
2023-04-29T11:51:05.042Z,0.4963
2023-04-29T11:52:07.632Z,0.4790
2023-04-29T11:53:10.229Z,0.4681
2023-04-29T11:54:12.763Z,0.4612
2023-04-29T11:55:15.383Z,0.4675
2023-04-29T11:56:18.088Z,0.4861
2023-04-29T11:57:20.545Z,0.4875
2023-04-29T11:58:23.113Z,0.4783
2023-04-29T11:59:25.710Z,0.4662
2023-04-29T12:00:28.323Z,0.4618
2023-04-29T12:01:30.895Z,0.4636
2023-04-29T12:02:33.601Z,0.4664
2023-04-29T12:03:36.255Z,0.4584
2023-04-29T12:04:38.807Z,0.4525
2023-04-29T12:05:41.329Z,0.4551
2023-04-29T12:06:43.771Z,0.4560
2023-04-29T12:07:46.386Z,0.4517
2023-04-29T12:08:48.959Z,0.4544
2023-04-29T12:09:51.552Z,0.4542
2023-04-29T12:10:54.113Z,0.4586
2023-04-29T12:11:56.964Z,0.4635
2023-04-29T12:12:59.281Z,0.4651
2023-04-29T12:14:01.889Z,0.4750
2023-04-29T12:15:04.433Z,0.4816
2023-04-29T12:16:07.080Z,0.4793
2023-04-29T12:17:09.616Z,0.4874
2023-04-29T12:18:12.317Z,0.4643
2023-04-29T12:19:14.773Z,0.4679
2023-04-29T12:20:17.389Z,0.4661
2023-04-29T12:21:19.938Z,0.4573
2023-04-29T12:22:22.554Z,0.4592
2023-04-29T12:23:25.114Z,0.4581
2023-04-29T12:24:27.724Z,0.4379
2023-04-29T12:25:30.293Z,0.4345
2023-04-29T12:26:32.889Z,0.4428
2023-04-29T12:27:35.447Z,0.4450
2023-04-29T12:28:38.046Z,0.4495
2023-04-29T12:29:40.630Z,0.4524
2023-04-29T12:30:43.204Z,0.4470
2023-04-29T12:31:45.861Z,0.4377
2023-04-29T12:32:48.418Z,0.4463
2023-04-29T12:33:50.937Z,0.4436
2023-04-29T12:34:53.787Z,0.4396
2023-04-29T12:35:56.086Z,0.4349
2023-04-29T12:36:58.701Z,0.4331
2023-04-29T12:38:01.246Z,0.4456
2023-04-29T12:39:03.869Z,0.4419
2023-04-29T12:40:06.418Z,0.4402
2023-04-29T12:42:09.549Z,0.4325
2023-04-29T12:43:12.109Z,0.4612
2023-04-29T12:44:14.751Z,0.4579
2023-04-29T12:45:17.278Z,0.4453
2023-04-29T12:46:19.950Z,0.4455
2023-04-29T12:47:22.467Z,0.4411
2023-04-29T12:48:30.036Z,0.4390
2023-04-29T12:49:27.623Z,0.4457
2023-04-29T12:50:30.216Z,0.4532
2023-04-29T12:51:32.794Z,0.4411
2023-04-29T12:52:36.871Z,0.4335
2023-04-29T12:53:37.937Z,0.4403
2023-04-29T12:54:40.545Z,0.4412
2023-04-29T12:55:43.115Z,0.4504
2023-04-29T12:56:45.752Z,0.4545
2023-04-29T12:57:48.265Z,0.4664
2023-04-29T12:58:51.072Z,0.4524
2023-04-29T12:59:53.644Z,0.4449
2023-04-29T13:00:56.064Z,0.4453
2023-04-29T13:01:58.614Z,0.4420
2023-04-29T13:03:01.308Z,0.4336
2023-04-29T13:04:03.861Z,0.4356
2023-04-29T13:05:06.568Z,0.4315
2023-04-29T13:06:08.941Z,0.4434
2023-04-29T13:07:11.534Z,0.4443
2023-04-29T13:08:14.104Z,0.4450
2023-04-29T13:09:18.817Z,0.4439
2023-04-29T13:10:19.268Z,0.4374
2023-04-29T13:11:21.866Z,0.4290
2023-04-29T13:12:24.413Z,0.4196
2023-04-29T13:13:27.024Z,0.4198
2023-04-29T13:14:29.583Z,0.4230
2023-04-29T13:15:32.192Z,0.4144
2023-04-29T13:16:36.310Z,0.4062
2023-04-29T13:17:37.370Z,0.4123
2023-04-29T13:18:40.119Z,0.4148
2023-04-29T13:19:51.194Z,0.4260
2023-04-29T13:20:45.125Z,0.4275
2023-04-29T13:21:49.729Z,0.4243
2023-04-29T13:22:50.237Z,0.4259
2023-04-29T13:23:52.840Z,0.4355
2023-04-29T13:24:55.758Z,0.4368
2023-04-29T13:25:58.007Z,0.4299
2023-04-29T13:27:00.566Z,0.4383
2023-04-29T13:28:03.165Z,0.4364
2023-04-29T13:29:06.058Z,0.4383
2023-04-29T13:30:08.360Z,0.4436
2023-04-29T13:31:10.899Z,0.4490
2023-04-29T13:32:13.646Z,0.4471
2023-04-29T13:33:16.119Z,0.4409